| time (UTC) | temp F | wind direction | speed knots | gust knots | rain 1hr in | rain 24hr in | rain mn in | humidity % | barometer mb |
| 20260510065539 | 42 | 317 | 1.7 | 2.6 | 0.00 | 0.00 | 0.00 | 96 | 1015.6 |
| 20260510065034 | 43 | 80 | 0.9 | 2.6 | 0.00 | 0.00 | 0.00 | 96 | 1015.6 |
| 20260510064531 | 44 | 99 | 2.6 | 3.5 | 0.00 | 0.00 | 0.00 | 95 | 1015.3 |
| 20260510064028 | 44 | 33 | 1.7 | 2.6 | 0.00 | 0.00 | 0.00 | 96 | 1015.6 |
| 20260510063525 | 45 | 189 | 0.9 | 4.3 | 0.00 | 0.00 | 0.00 | 95 | 1015.5 |
| 20260510063022 | 45 | 58 | 0.0 | 3.5 | 0.00 | 0.00 | 0.00 | 95 | 1015.4 |
| 20260510062518 | 44 | 55 | 0.0 | 1.7 | 0.00 | 0.00 | 0.00 | 93 | 1015.5 |
| 20260510062013 | 45 | 100 | 0.0 | 4.3 | 0.00 | 0.00 | 0.00 | 93 | 1015.4 |
| 20260510061510 | 46 | 169 | 0.0 | 3.5 | 0.00 | 0.00 | 0.00 | 92 | 1015.3 |
| 20260510061006 | 47 | 122 | 1.7 | 2.6 | 0.00 | 0.00 | 0.00 | 90 | 1015.5 |
| 20260510060503 | 48 | 94 | 0.0 | 3.5 | 0.00 | 0.00 | 0.00 | 88 | 1015.4 |
| 20260510055959 | 47 | 181 | 3.5 | 5.2 | 0.00 | 0.00 | 0.00 | 91 | 1015.5 |
| 20260510055455 | 48 | 207 | 2.6 | 4.3 | 0.00 | 0.00 | 0.00 | 88 | 1015.3 |
| 20260510054954 | 50 | 209 | 2.6 | 5.2 | 0.00 | 0.00 | 0.00 | 87 | 1015.3 |
| 20260510054448 | 48 | 197 | 5.2 | 7.8 | 0.00 | 0.00 | 0.00 | 89 | 1015.3 |
| 20260510053944 | 50 | 115 | 1.7 | 7.8 | 0.00 | 0.00 | 0.00 | 86 | 1015.5 |
| 20260510053439 | 48 | 202 | 7.0 | 12.2 | 0.00 | 0.00 | 0.00 | 90 | 1015.4 |
| 20260510052936 | 45 | 112 | 1.7 | 6.1 | 0.00 | 0.00 | 0.00 | 96 | 1015.7 |
| 20260510052432 | 43 | 103 | 1.7 | 4.3 | 0.00 | 0.00 | 0.00 | 96 | 1015.8 |
| 20260510051928 | 44 | 87 | 0.9 | 2.6 | 0.00 | 0.00 | 0.00 | 96 | 1015.8 |
| 20260510051425 | 44 | 311 | 0.0 | 3.5 | 0.00 | 0.00 | 0.00 | 97 | 1016.0 |
| 20260510050921 | 43 | 65 | 1.7 | 2.6 | 0.00 | 0.00 | 0.00 | 98 | 1015.8 |
| 20260510050418 | 44 | 71 | 0.9 | 3.5 | 0.00 | 0.00 | 0.00 | 98 | 1016.0 |
| 20260510045915 | 42 | 309 | 3.5 | 4.3 | 0.00 | 0.00 | 0.00 | 98 | 1016.0 |
| 20260510045412 | 42 | 39 | 2.6 | 3.5 | 0.00 | 0.00 | 0.00 | 98 | 1016.1 |
| 20260510044909 | 42 | 21 | 2.6 | 4.3 | 0.00 | 0.00 | 0.00 | 98 | 1015.9 |
| 20260510044406 | 42 | 17 | 1.7 | 3.5 | 0.00 | 0.00 | 0.00 | 98 | 1016.1 |
| 20260510043902 | 42 | 33 | 1.7 | 3.5 | 0.00 | 0.00 | 0.00 | 98 | 1016.3 |
| 20260510043358 | 42 | 34 | 2.6 | 2.6 | 0.00 | 0.00 | 0.00 | 98 | 1016.1 |
| 20260510042857 | 42 | 348 | 0.9 | 2.6 | 0.00 | 0.00 | 0.00 | 97 | 1016.0 |
| 20260510042352 | 42 | 30 | 1.7 | 2.6 | 0.00 | 0.00 | 0.00 | 97 | 1016.0 |
| 20260510041848 | 42 | 81 | 0.9 | 2.6 | 0.00 | 0.00 | 0.00 | 97 | 1016.0 |
| 20260510041346 | 42 | 12 | 1.7 | 2.6 | 0.00 | 0.00 | 0.00 | 97 | 1016.1 |
| 20260510040843 | 42 | 35 | 1.7 | 3.5 | 0.00 | 0.00 | 0.00 | 97 | 1016.1 |
| 20260510040340 | 43 | 72 | 2.6 | 3.5 | 0.00 | 0.00 | 0.00 | 97 | 1015.9 |
| 20260510035835 | 43 | 15 | 0.9 | 2.6 | 0.00 | 0.00 | 0.00 | 97 | 1015.8 |
| 20260510035331 | 43 | 18 | 1.7 | 2.6 | 0.00 | 0.00 | 0.00 | 97 | 1015.9 |
| 20260510034827 | 42 | 23 | 2.6 | 2.6 | 0.00 | 0.00 | 0.00 | 97 | 1015.8 |
| 20260510034325 | 42 | 59 | 2.6 | 2.6 | 0.00 | 0.00 | 0.00 | 96 | 1016.0 |
| 20260510033821 | 43 | 21 | 1.7 | 2.6 | 0.00 | 0.00 | 0.00 | 96 | 1016.1 |
| 20260510033319 | 43 | 46 | 0.9 | 2.6 | 0.00 | 0.00 | 0.00 | 95 | 1015.9 |
| 20260510032815 | 42 | 43 | 2.6 | 3.5 | 0.00 | 0.00 | 0.00 | 95 | 1015.8 |
| 20260510032312 | 43 | 42 | 2.6 | 3.5 | 0.00 | 0.00 | 0.00 | 95 | 1015.8 |
| 20260510031807 | 43 | 354 | 1.7 | 2.6 | 0.00 | 0.00 | 0.00 | 96 | 1015.6 |
| 20260510031303 | 43 | 14 | 2.6 | 3.5 | 0.00 | 0.00 | 0.00 | 94 | 1015.7 |
| 20260510030803 | 43 | 42 | 2.6 | 2.6 | 0.00 | 0.00 | 0.00 | 94 | 1015.6 |
| 20260510030259 | 44 | 54 | 2.6 | 3.5 | 0.00 | 0.00 | 0.00 | 94 | 1015.6 |
| 20260510025757 | 44 | 5 | 2.6 | 3.5 | 0.00 | 0.00 | 0.00 | 92 | 1015.7 |
| 20260510025254 | 44 | 32 | 2.6 | 3.5 | 0.00 | 0.00 | 0.00 | 93 | 1015.5 |
| 20260510024751 | 44 | 38 | 2.6 | 3.5 | 0.00 | 0.00 | 0.00 | 93 | 1015.8 |
| 20260510024248 | 44 | 38 | 0.0 | 2.6 | 0.00 | 0.00 | 0.00 | 91 | 1015.7 |
| 20260510023744 | 44 | 7 | 2.6 | 2.6 | 0.00 | 0.00 | 0.00 | 93 | 1015.8 |
| 20260510023241 | 44 | 70 | 2.6 | 3.5 | 0.00 | 0.00 | 0.00 | 93 | 1015.8 |
| 20260510022737 | 44 | 352 | 1.7 | 2.6 | 0.00 | 0.00 | 0.00 | 93 | 1015.3 |
| 20260510022237 | 44 | 15 | 0.9 | 2.6 | 0.00 | 0.00 | 0.00 | 92 | 1015.7 |
| 20260510021732 | 44 | 11 | 1.7 | 2.6 | 0.00 | 0.00 | 0.00 | 92 | 1015.6 |
| 20260510021230 | 45 | 29 | 2.6 | 3.5 | 0.00 | 0.00 | 0.00 | 91 | 1015.5 |
| 20260510020730 | 45 | 9 | 1.7 | 2.6 | 0.00 | 0.00 | 0.00 | 91 | 1015.4 |
| 20260510020225 | 45 | 58 | 2.6 | 2.6 | 0.00 | 0.00 | 0.00 | 91 | 1015.5 |
| 20260510015721 | 45 | 29 | 2.6 | 3.5 | 0.00 | 0.00 | 0.00 | 90 | 1015.3 |
| 20260510015218 | 45 | 3 | 0.9 | 3.5 | 0.00 | 0.00 | 0.00 | 89 | 1014.8 |
| 20260510014713 | 46 | 43 | 2.6 | 2.6 | 0.00 | 0.00 | 0.00 | 90 | 1014.6 |
| 20260510014211 | 46 | 12 | 1.7 | 3.5 | 0.00 | 0.00 | 0.00 | 88 | 1014.9 |
| 20260510013712 | 46 | 52 | 1.7 | 2.6 | 0.00 | 0.00 | 0.00 | 88 | 1014.7 |
| 20260510013208 | 45 | 16 | 1.7 | 3.5 | 0.00 | 0.00 | 0.00 | 89 | 1014.5 |
| 20260510012707 | 45 | 22 | 2.6 | 3.5 | 0.00 | 0.00 | 0.00 | 90 | 1014.7 |
| 20260510012203 | 46 | 47 | 2.6 | 3.5 | 0.00 | 0.00 | 0.00 | 87 | 1014.7 |
| 20260510011658 | 46 | 0 | 1.7 | 2.6 | 0.00 | 0.00 | 0.00 | 87 | 1014.5 |
| 20260510011154 | 46 | 43 | 2.6 | 2.6 | 0.00 | 0.00 | 0.00 | 87 | 1014.3 |
| 20260510010650 | 47 | 23 | 1.7 | 2.6 | 0.00 | 0.00 | 0.00 | 85 | 1014.2 |
| 20260510010147 | 48 | 16 | 0.9 | 1.7 | 0.00 | 0.00 | 0.00 | 83 | 1014.4 |
| 20260510005643 | 47 | 35 | 2.6 | 2.6 | 0.00 | 0.00 | 0.00 | 85 | 1014.2 |
| 20260510005140 | 49 | 358 | 1.7 | 2.6 | 0.00 | 0.00 | 0.00 | 82 | 1014.3 |
| 20260510004639 | 49 | 92 | 0.9 | 1.7 | 0.00 | 0.00 | 0.00 | 80 | 1014.1 |
| 20260510004137 | 50 | 246 | 0.0 | 1.7 | 0.00 | 0.00 | 0.00 | 81 | 1014.0 |
| 20260510003633 | 51 | 131 | 0.0 | 1.7 | 0.00 | 0.00 | 0.00 | 78 | 1013.7 |
| 20260510003129 | 51 | 135 | 0.0 | 2.6 | 0.00 | 0.00 | 0.00 | 78 | 1014.0 |
| 20260510002629 | 52 | 69 | 0.0 | 2.6 | 0.00 | 0.00 | 0.00 | 74 | 1013.5 |
| 20260510002126 | 52 | 95 | 0.9 | 2.6 | 0.00 | 0.00 | 0.00 | 73 | 1013.7 |
| 20260510001623 | 53 | 94 | 0.0 | 2.6 | 0.00 | 0.00 | 0.00 | 73 | 1013.5 |
| 20260510001122 | 53 | 89 | 0.0 | 2.6 | 0.00 | 0.00 | 0.00 | 71 | 1013.6 |
| 20260510000622 | 55 | 98 | 0.0 | 1.7 | 0.00 | 0.00 | 0.00 | 70 | 1013.4 |
| 20260510000119 | 55 | 48 | 0.0 | 2.6 | 0.00 | 0.00 | 0.00 | 69 | 1013.4 |
| 20260509235616 | 55 | 28 | 0.0 | 2.6 | 0.00 | 0.00 | 0.00 | 65 | 1013.3 |
| 20260509235112 | 54 | 154 | 0.0 | 4.3 | 0.00 | 0.00 | 0.00 | 74 | 1013.2 |
| 20260509234608 | 56 | 164 | 0.0 | 1.7 | 0.00 | 0.00 | 0.00 | 70 | 1013.2 |
| 20260509234107 | 57 | 180 | 0.0 | 0.9 | 0.00 | 0.00 | 0.00 | 66 | 1013.2 |
| 20260509233604 | 58 | 60 | 1.7 | 2.6 | 0.00 | 0.00 | 0.00 | 64 | 1013.1 |
| 20260509233101 | 58 | 102 | 0.9 | 2.6 | 0.00 | 0.00 | 0.00 | 63 | 1013.3 |
| 20260509232557 | 59 | 167 | 0.9 | 2.6 | 0.00 | 0.00 | 0.00 | 63 | 1013.2 |
| 20260509232054 | 59 | 334 | 3.5 | 4.3 | 0.00 | 0.00 | 0.00 | 59 | 1013.2 |
| 20260509231550 | 59 | 176 | 0.9 | 1.7 | 0.00 | 0.00 | 0.00 | 59 | 1013.1 |
| 20260509231048 | 59 | 186 | 0.0 | 1.7 | 0.00 | 0.00 | 0.00 | 61 | 1013.2 |
| 20260509230545 | 59 | 119 | 0.0 | 0.9 | 0.00 | 0.00 | 0.00 | 61 | 1013.3 |
| 20260509230042 | 59 | 175 | 2.6 | 4.3 | 0.00 | 0.00 | 0.00 | 61 | 1013.3 |
| 20260509225537 | 60 | 191 | 2.6 | 6.1 | 0.00 | 0.00 | 0.00 | 61 | 1013.2 |
| 20260509225033 | 62 | 280 | 0.9 | 5.2 | 0.00 | 0.00 | 0.00 | 54 | 1013.2 |
| 20260509224529 | 62 | 21 | 0.9 | 7.8 | 0.00 | 0.00 | 0.00 | 53 | 1013.5 |
| 20260509224026 | 63 | 25 | 1.7 | 6.1 | 0.00 | 0.00 | 0.00 | 52 | 1013.5 |
| 20260509223523 | 62 | 273 | 0.9 | 7.0 | 0.00 | 0.00 | 0.00 | 53 | 1013.3 |
| 20260509223021 | 62 | 344 | 2.6 | 13.0 | 0.00 | 0.00 | 0.00 | 53 | 1013.1 |
| 20260509222516 | 62 | 7 | 1.7 | 8.7 | 0.00 | 0.00 | 0.00 | 53 | 1013.4 |
| 20260509222012 | 61 | 205 | 1.7 | 6.1 | 0.00 | 0.00 | 0.00 | 54 | 1013.4 |
| 20260509221508 | 61 | 172 | 1.7 | 4.3 | 0.00 | 0.00 | 0.00 | 53 | 1013.4 |
| 20260509221004 | 62 | 312 | 4.3 | 9.6 | 0.00 | 0.00 | 0.00 | 54 | 1013.5 |
| 20260509220500 | 63 | 0 | 1.7 | 2.6 | 0.00 | 0.00 | 0.00 | 52 | 1013.4 |
| 20260509215956 | 63 | 206 | 7.0 | 10.4 | 0.00 | 0.00 | 0.00 | 52 | 1013.3 |
| 20260509215452 | 62 | 14 | 1.7 | 3.5 | 0.00 | 0.00 | 0.00 | 53 | 1013.4 |
| 20260509214950 | 61 | 321 | 4.3 | 12.2 | 0.00 | 0.00 | 0.00 | 54 | 1013.4 |
| 20260509214447 | 62 | 201 | 1.7 | 5.2 | 0.00 | 0.00 | 0.00 | 51 | 1013.3 |
| 20260509213943 | 62 | 126 | 5.2 | 6.1 | 0.00 | 0.00 | 0.00 | 51 | 1013.3 |
| 20260509213439 | 62 | 196 | 1.7 | 6.1 | 0.00 | 0.00 | 0.00 | 51 | 1013.3 |
| 20260509212937 | 61 | 253 | 0.9 | 8.7 | 0.00 | 0.00 | 0.00 | 51 | 1013.1 |
| 20260509212434 | 61 | 289 | 7.0 | 10.4 | 0.00 | 0.00 | 0.00 | 50 | 1013.1 |
| 20260509211930 | 63 | 150 | 0.0 | 3.5 | 0.00 | 0.00 | 0.00 | 50 | 1013.0 |
| 20260509211426 | 63 | 76 | 1.7 | 7.8 | 0.00 | 0.00 | 0.00 | 50 | 1013.1 |
| 20260509210922 | 63 | 180 | 1.7 | 12.2 | 0.00 | 0.00 | 0.00 | 49 | 1013.0 |
| 20260509210420 | 63 | 204 | 1.7 | 7.8 | 0.00 | 0.00 | 0.00 | 47 | 1012.9 |
| 20260509205915 | 65 | 219 | 2.6 | 10.4 | 0.00 | 0.00 | 0.00 | 45 | 1012.6 |
| 20260509205415 | 64 | 310 | 2.6 | 7.0 | 0.00 | 0.00 | 0.00 | 45 | 1012.4 |
| 20260509204911 | 63 | 327 | 2.6 | 10.4 | 0.00 | 0.00 | 0.00 | 46 | 1012.6 |
| 20260509204408 | 67 | 135 | 4.3 | 6.1 | 0.00 | 0.00 | 0.00 | 42 | 1012.4 |
| 20260509203904 | 68 | 58 | 1.7 | 9.6 | 0.00 | 0.00 | 0.00 | 42 | 1012.1 |
| 20260509203400 | 68 | 210 | 4.3 | 13.9 | 0.00 | 0.00 | 0.00 | 42 | 1012.2 |
| 20260509202858 | 65 | 339 | 3.5 | 12.2 | 0.00 | 0.00 | 0.00 | 43 | 1012.0 |
| 20260509202353 | 64 | 160 | 1.7 | 12.2 | 0.00 | 0.00 | 0.00 | 45 | 1012.0 |
| 20260509201849 | 64 | 197 | 7.8 | 14.8 | 0.00 | 0.00 | 0.00 | 44 | 1012.3 |
| 20260509201344 | 65 | 187 | 1.7 | 3.5 | 0.00 | 0.00 | 0.00 | 43 | 1012.3 |
| 20260509200841 | 64 | 143 | 2.6 | 13.0 | 0.00 | 0.00 | 0.00 | 43 | 1012.2 |
| 20260509200336 | 63 | 306 | 0.0 | 8.7 | 0.00 | 0.00 | 0.00 | 43 | 1011.9 |
| 20260509195833 | 64 | 314 | 2.6 | 9.6 | 0.00 | 0.00 | 0.00 | 45 | 1012.1 |
| 20260509195333 | 64 | 15 | 3.5 | 13.0 | 0.00 | 0.00 | 0.00 | 40 | 1012.2 |
| 20260509194833 | 63 | 265 | 1.7 | 14.8 | 0.00 | 0.00 | 0.00 | 43 | 1012.3 |
| 20260509194329 | 64 | 50 | 1.7 | 20.9 | 0.00 | 0.00 | 0.00 | 46 | 1012.3 |
| 20260509193826 | 65 | 127 | 1.7 | 7.8 | 0.00 | 0.00 | 0.00 | 44 | 1012.3 |
| 20260509193321 | 63 | 206 | 11.3 | 11.3 | 0.00 | 0.00 | 0.00 | 48 | 1012.4 |
| 20260509192817 | 64 | 190 | 4.3 | 10.4 | 0.00 | 0.00 | 0.00 | 50 | 1012.3 |
| 20260509192313 | 64 | 195 | 7.0 | 10.4 | 0.00 | 0.00 | 0.00 | 51 | 1012.3 |
| 20260509191808 | 64 | 189 | 5.2 | 11.3 | 0.00 | 0.00 | 0.00 | 49 | 1012.0 |
| 20260509191305 | 66 | 199 | 7.0 | 16.5 | 0.00 | 0.00 | 0.00 | 48 | 1012.3 |
| 20260509190800 | 64 | 206 | 0.9 | 11.3 | 0.00 | 0.00 | 0.00 | 48 | 1012.3 |
| 20260509190258 | 63 | 158 | 9.6 | 13.9 | 0.00 | 0.00 | 0.00 | 50 | 1012.4 |
| 20260509185755 | 64 | 190 | 4.3 | 8.7 | 0.00 | 0.00 | 0.00 | 48 | 1012.4 |
| 20260509185251 | 64 | 194 | 3.5 | 14.8 | 0.00 | 0.00 | 0.00 | 46 | 1012.4 |
| 20260509184749 | 65 | 203 | 5.2 | 13.0 | 0.00 | 0.00 | 0.00 | 47 | 1012.3 |
| 20260509184246 | 63 | 170 | 3.5 | 10.4 | 0.00 | 0.00 | 0.00 | 54 | 1012.6 |
| 20260509183742 | 62 | 131 | 1.7 | 11.3 | 0.00 | 0.00 | 0.00 | 55 | 1012.5 |
| 20260509183238 | 64 | 154 | 3.5 | 7.8 | 0.00 | 0.00 | 0.00 | 49 | 1012.4 |
| 20260509182733 | 63 | 186 | 6.1 | 9.6 | 0.00 | 0.00 | 0.00 | 52 | 1012.6 |
| 20260509182231 | 62 | 206 | 2.6 | 7.8 | 0.00 | 0.00 | 0.00 | 56 | 1012.5 |
| 20260509181728 | 62 | 170 | 5.2 | 13.9 | 0.00 | 0.00 | 0.00 | 55 | 1012.5 |
| 20260509181226 | 63 | 200 | 6.1 | 12.2 | 0.00 | 0.00 | 0.00 | 53 | 1012.3 |
| 20260509180723 | 62 | 190 | 8.7 | 9.6 | 0.00 | 0.00 | 0.00 | 53 | 1012.7 |
| 20260509180219 | 63 | 196 | 3.5 | 7.8 | 0.00 | 0.00 | 0.00 | 53 | 1012.7 |
| 20260509175715 | 63 | 170 | 7.0 | 7.8 | 0.00 | 0.00 | 0.00 | 52 | 1012.5 |
| 20260509175212 | 62 | 203 | 4.3 | 8.7 | 0.00 | 0.00 | 0.00 | 55 | 1012.7 |
| 20260509174708 | 60 | 194 | 7.8 | 14.8 | 0.00 | 0.00 | 0.00 | 56 | 1012.7 |
| 20260509174203 | 61 | 182 | 2.6 | 11.3 | 0.00 | 0.00 | 0.00 | 60 | 1013.1 |
| 20260509173659 | 61 | 180 | 7.0 | 9.6 | 0.00 | 0.00 | 0.00 | 56 | 1013.1 |
| 20260509173155 | 60 | 203 | 6.1 | 6.1 | 0.00 | 0.00 | 0.00 | 56 | 1013.3 |
| 20260509172651 | 60 | 178 | 2.6 | 13.9 | 0.00 | 0.00 | 0.00 | 56 | 1013.3 |
| 20260509172148 | 61 | 194 | 2.6 | 7.8 | 0.00 | 0.00 | 0.00 | 58 | 1013.1 |
| 20260509171643 | 61 | 168 | 4.3 | 9.6 | 0.00 | 0.00 | 0.00 | 57 | 1013.2 |
| 20260509171140 | 61 | 203 | 0.9 | 6.1 | 0.00 | 0.00 | 0.00 | 58 | 1013.3 |
| 20260509170637 | 60 | 159 | 1.7 | 5.2 | 0.00 | 0.00 | 0.00 | 57 | 1013.3 |
| 20260509170133 | 58 | 201 | 0.0 | 5.2 | 0.00 | 0.00 | 0.00 | 60 | 1013.7 |
| 20260509165631 | 59 | 183 | 0.0 | 11.3 | 0.00 | 0.00 | 0.00 | 60 | 1013.5 |
| 20260509165127 | 58 | 246 | 0.0 | 8.7 | 0.00 | 0.00 | 0.00 | 61 | 1013.5 |
| 20260509164623 | 58 | 196 | 3.5 | 7.8 | 0.00 | 0.00 | 0.00 | 60 | 1013.5 |
| 20260509164119 | 58 | 159 | 1.7 | 10.4 | 0.00 | 0.00 | 0.00 | 61 | 1013.4 |
| 20260509163617 | 58 | 202 | 3.5 | 5.2 | 0.00 | 0.00 | 0.00 | 59 | 1013.5 |
| 20260509163112 | 59 | 180 | 2.6 | 5.2 | 0.00 | 0.00 | 0.00 | 59 | 1013.0 |
| 20260509162610 | 59 | 151 | 5.2 | 8.7 | 0.00 | 0.00 | 0.00 | 59 | 1013.3 |
| 20260509162106 | 59 | 160 | 3.5 | 5.2 | 0.00 | 0.00 | 0.00 | 60 | 1013.0 |
| 20260509161602 | 59 | 45 | 1.7 | 2.6 | 0.00 | 0.00 | 0.00 | 61 | 1013.1 |
| 20260509161102 | 58 | 197 | 3.5 | 4.3 | 0.00 | 0.00 | 0.00 | 60 | 1013.2 |
| 20260509160559 | 58 | 255 | 1.7 | 6.1 | 0.00 | 0.00 | 0.00 | 60 | 1013.5 |
| 20260509160054 | 58 | 94 | 1.7 | 4.3 | 0.00 | 0.00 | 0.00 | 60 | 1013.3 |
| 20260509155551 | 57 | 193 | 3.5 | 4.3 | 0.00 | 0.00 | 0.00 | 64 | 1013.1 |
| 20260509155047 | 57 | 179 | 2.6 | 8.7 | 0.00 | 0.00 | 0.00 | 62 | 1013.3 |
| 20260509154543 | 58 | 139 | 0.0 | 5.2 | 0.00 | 0.00 | 0.00 | 62 | 1013.2 |
| 20260509154041 | 58 | 199 | 1.7 | 4.3 | 0.00 | 0.00 | 0.00 | 61 | 1013.2 |
| 20260509153537 | 57 | 169 | 2.6 | 5.2 | 0.00 | 0.00 | 0.00 | 64 | 1013.2 |
| 20260509153034 | 57 | 180 | 3.5 | 7.8 | 0.00 | 0.00 | 0.00 | 64 | 1013.0 |
| 20260509152530 | 57 | 194 | 3.5 | 10.4 | 0.00 | 0.00 | 0.00 | 61 | 1013.2 |
| 20260509152027 | 57 | 161 | 1.7 | 4.3 | 0.00 | 0.00 | 0.00 | 62 | 1013.1 |
| 20260509151523 | 57 | 115 | 0.9 | 4.3 | 0.00 | 0.00 | 0.00 | 62 | 1013.1 |
| 20260509151021 | 57 | 191 | 3.5 | 7.0 | 0.00 | 0.00 | 0.00 | 62 | 1013.0 |
| 20260509150518 | 57 | 184 | 4.3 | 12.2 | 0.00 | 0.00 | 0.00 | 62 | 1013.3 |
| 20260509150017 | 58 | 190 | 7.8 | 10.4 | 0.00 | 0.00 | 0.00 | 62 | 1013.1 |
| 20260509145512 | 59 | 172 | 2.6 | 6.1 | 0.00 | 0.00 | 0.00 | 60 | 1013.1 |
| 20260509145007 | 59 | 190 | 4.3 | 7.0 | 0.00 | 0.00 | 0.00 | 59 | 1013.0 |
| 20260509144505 | 60 | 200 | 6.1 | 6.1 | 0.00 | 0.00 | 0.00 | 58 | 1012.7 |
| 20260509144002 | 58 | 163 | 2.6 | 4.3 | 0.00 | 0.00 | 0.00 | 59 | 1013.0 |
| 20260509143459 | 58 | 190 | 2.6 | 5.2 | 0.00 | 0.00 | 0.00 | 60 | 1013.1 |
| 20260509142955 | 60 | 117 | 2.6 | 7.0 | 0.00 | 0.00 | 0.00 | 57 | 1013.0 |
| 20260509142452 | 59 | 114 | 3.5 | 7.0 | 0.00 | 0.00 | 0.00 | 57 | 1012.7 |
| 20260509141947 | 61 | 193 | 1.7 | 6.1 | 0.00 | 0.00 | 0.00 | 55 | 1013.0 |
| 20260509141444 | 63 | 137 | 1.7 | 4.3 | 0.00 | 0.00 | 0.00 | 56 | 1013.0 |
| 20260509140941 | 63 | 46 | 0.0 | 4.3 | 0.00 | 0.00 | 0.00 | 54 | 1012.6 |
| 20260509140437 | 62 | 156 | 0.9 | 2.6 | 0.00 | 0.00 | 0.00 | 53 | 1012.9 |
| 20260509135936 | 60 | 198 | 0.0 | 7.0 | 0.00 | 0.00 | 0.00 | 59 | 1012.9 |
| 20260509135433 | 61 | 202 | 6.1 | 7.0 | 0.00 | 0.00 | 0.00 | 55 | 1013.0 |
| 20260509134930 | 57 | 175 | 3.5 | 7.0 | 0.00 | 0.00 | 0.00 | 62 | 1013.2 |
| 20260509134427 | 56 | 187 | 4.3 | 11.3 | 0.00 | 0.00 | 0.00 | 64 | 1013.4 |
| 20260509133925 | 57 | 183 | 3.5 | 11.3 | 0.00 | 0.00 | 0.00 | 66 | 1013.5 |
| 20260509133421 | 55 | 195 | 7.0 | 13.9 | 0.00 | 0.00 | 0.00 | 65 | 1013.4 |
| 20260509132920 | 56 | 189 | 5.2 | 11.3 | 0.00 | 0.00 | 0.00 | 62 | 1013.6 |
| 20260509132417 | 57 | 198 | 3.5 | 9.6 | 0.00 | 0.00 | 0.00 | 61 | 1013.8 |
| 20260509131914 | 55 | 173 | 3.5 | 7.8 | 0.00 | 0.00 | 0.00 | 64 | 1013.5 |
| 20260509131411 | 55 | 180 | 7.0 | 7.8 | 0.00 | 0.00 | 0.00 | 65 | 1013.7 |
| 20260509130908 | 53 | 187 | 7.8 | 17.4 | 0.00 | 0.00 | 0.00 | 68 | 1013.4 |
| 20260509130403 | 54 | 193 | 5.2 | 9.6 | 0.00 | 0.00 | 0.00 | 67 | 1013.7 |
| 20260509125900 | 54 | 197 | 7.0 | 7.8 | 0.00 | 0.00 | 0.00 | 67 | 1013.8 |
| 20260509125357 | 53 | 150 | 5.2 | 9.6 | 0.00 | 0.00 | 0.00 | 69 | 1013.6 |
| 20260509124853 | 52 | 172 | 4.3 | 7.0 | 0.00 | 0.00 | 0.00 | 72 | 1013.8 |
| 20260509124350 | 51 | 191 | 3.5 | 6.1 | 0.00 | 0.00 | 0.00 | 72 | 1013.8 |
| 20260509123848 | 49 | 186 | 4.3 | 5.2 | 0.00 | 0.00 | 0.00 | 75 | 1013.8 |
| 20260509123345 | 48 | 168 | 2.6 | 6.1 | 0.00 | 0.00 | 0.00 | 77 | 1013.8 |
| 20260509122841 | 48 | 176 | 2.6 | 7.0 | 0.00 | 0.00 | 0.00 | 76 | 1014.3 |
| 20260509122338 | 48 | 191 | 2.6 | 6.1 | 0.00 | 0.00 | 0.00 | 78 | 1014.1 |
| 20260509121835 | 48 | 165 | 3.5 | 5.2 | 0.00 | 0.00 | 0.00 | 75 | 1013.8 |
| 20260509121332 | 47 | 166 | 0.0 | 1.7 | 0.00 | 0.00 | 0.00 | 83 | 1013.8 |
| 20260509120830 | 46 | 137 | 0.9 | 1.7 | 0.00 | 0.00 | 0.00 | 83 | 1014.0 |
| 20260509120327 | 46 | 114 | 0.0 | 1.7 | 0.00 | 0.00 | 0.00 | 85 | 1013.8 |
| 20260509115825 | 45 | 114 | 0.9 | 1.7 | 0.00 | 0.00 | 0.00 | 88 | 1014.0 |
| 20260509115322 | 45 | 126 | 0.0 | 2.6 | 0.00 | 0.00 | 0.00 | 88 | 1013.8 |
| 20260509114820 | 44 | 127 | 0.9 | 1.7 | 0.00 | 0.00 | 0.00 | 89 | 1013.7 |
| 20260509114318 | 44 | 86 | 1.7 | 2.6 | 0.00 | 0.00 | 0.00 | 89 | 1013.7 |
| 20260509113818 | 43 | 60 | 1.7 | 2.6 | 0.00 | 0.00 | 0.00 | 90 | 1014.0 |
| 20260509113314 | 43 | 8 | 0.0 | 2.6 | 0.00 | 0.00 | 0.00 | 90 | 1013.8 |
| 20260509112811 | 42 | 52 | 1.7 | 2.6 | 0.00 | 0.00 | 0.00 | 91 | 1014.0 |
| 20260509112308 | 42 | 33 | 0.9 | 2.6 | 0.00 | 0.00 | 0.00 | 92 | 1014.0 |
| 20260509111805 | 42 | 61 | 0.9 | 2.6 | 0.00 | 0.00 | 0.00 | 91 | 1014.0 |
| 20260509111301 | 42 | 78 | 0.0 | 1.7 | 0.00 | 0.00 | 0.00 | 90 | 1014.2 |
| 20260509110759 | 41 | 64 | 1.7 | 2.6 | 0.00 | 0.00 | 0.00 | 91 | 1014.0 |
| 20260509110255 | 41 | 35 | 0.9 | 1.7 | 0.00 | 0.00 | 0.00 | 92 | 1014.0 |
| 20260509105753 | 41 | 81 | 1.7 | 2.6 | 0.00 | 0.00 | 0.00 | 91 | 1014.0 |
| 20260509105251 | 41 | 68 | 0.9 | 2.6 | 0.00 | 0.00 | 0.00 | 91 | 1014.2 |
| 20260509104747 | 41 | 40 | 1.7 | 1.7 | 0.00 | 0.00 | 0.00 | 89 | 1014.0 |
| 20260509104244 | 41 | 37 | 1.7 | 2.6 | 0.00 | 0.00 | 0.00 | 92 | 1013.6 |
| 20260509103743 | 40 | 55 | 2.6 | 3.5 | 0.00 | 0.00 | 0.00 | 91 | 1013.7 |
| 20260509103239 | 40 | 38 | 1.7 | 3.5 | 0.00 | 0.00 | 0.00 | 92 | 1013.7 |
| 20260509102738 | 40 | 36 | 1.7 | 3.5 | 0.00 | 0.00 | 0.00 | 93 | 1013.8 |
| 20260509102234 | 40 | 40 | 2.6 | 3.5 | 0.00 | 0.00 | 0.00 | 92 | 1013.7 |
| 20260509101731 | 40 | 21 | 2.6 | 3.5 | 0.00 | 0.00 | 0.00 | 92 | 1013.8 |
| 20260509101227 | 39 | 33 | 2.6 | 4.3 | 0.00 | 0.00 | 0.00 | 93 | 1013.7 |
| 20260509100725 | 39 | 41 | 2.6 | 4.3 | 0.00 | 0.00 | 0.00 | 94 | 1013.5 |
| 20260509100222 | 40 | 45 | 1.7 | 3.5 | 0.00 | 0.00 | 0.00 | 92 | 1013.7 |
| 20260509095718 | 39 | 32 | 3.5 | 4.3 | 0.00 | 0.00 | 0.00 | 93 | 1013.6 |
| 20260509095216 | 39 | 27 | 2.6 | 5.2 | 0.00 | 0.00 | 0.00 | 93 | 1013.5 |
| 20260509094713 | 39 | 10 | 2.6 | 4.3 | 0.00 | 0.00 | 0.00 | 93 | 1013.5 |
| 20260509094209 | 39 | 25 | 1.7 | 4.3 | 0.00 | 0.00 | 0.00 | 93 | 1013.7 |
| 20260509093708 | 39 | 40 | 2.6 | 3.5 | 0.00 | 0.00 | 0.00 | 93 | 1013.8 |
| 20260509093204 | 39 | 58 | 1.7 | 3.5 | 0.00 | 0.00 | 0.00 | 93 | 1013.8 |
| 20260509092702 | 39 | 33 | 2.6 | 3.5 | 0.00 | 0.00 | 0.00 | 93 | 1014.0 |
| 20260509092201 | 39 | 48 | 1.7 | 2.6 | 0.00 | 0.00 | 0.00 | 92 | 1014.1 |
| 20260509091659 | 40 | 34 | 2.6 | 4.3 | 0.00 | 0.00 | 0.00 | 92 | 1014.0 |
| 20260509091154 | 40 | 25 | 2.6 | 3.5 | 0.00 | 0.00 | 0.00 | 92 | 1014.0 |
| 20260509090652 | 40 | 39 | 2.6 | 4.3 | 0.00 | 0.00 | 0.00 | 92 | 1014.0 |
| 20260509090149 | 40 | 56 | 1.7 | 3.5 | 0.00 | 0.00 | 0.00 | 92 | 1014.3 |
| 20260509085647 | 40 | 32 | 1.7 | 3.5 | 0.00 | 0.00 | 0.00 | 92 | 1014.2 |
| 20260509085143 | 40 | 56 | 2.6 | 3.5 | 0.00 | 0.00 | 0.00 | 92 | 1014.3 |
| 20260509084640 | 41 | 23 | 2.6 | 4.3 | 0.00 | 0.00 | 0.00 | 90 | 1014.2 |
| 20260509084137 | 41 | 29 | 2.6 | 3.5 | 0.00 | 0.00 | 0.00 | 90 | 1014.2 |
| 20260509083634 | 41 | 34 | 1.7 | 2.6 | 0.00 | 0.00 | 0.00 | 92 | 1014.2 |
| 20260509083131 | 41 | 43 | 0.9 | 2.6 | 0.00 | 0.00 | 0.00 | 92 | 1014.2 |
| 20260509082628 | 41 | 25 | 1.7 | 3.5 | 0.00 | 0.00 | 0.00 | 90 | 1014.4 |
| 20260509082125 | 41 | 35 | 2.6 | 3.5 | 0.00 | 0.00 | 0.00 | 89 | 1014.4 |
| 20260509081622 | 41 | 37 | 2.6 | 3.5 | 0.00 | 0.00 | 0.00 | 89 | 1014.2 |
| 20260509081119 | 42 | 38 | 2.6 | 2.6 | 0.00 | 0.00 | 0.00 | 90 | 1014.4 |
| 20260509080617 | 41 | 94 | 0.0 | 1.7 | 0.00 | 0.00 | 0.00 | 88 | 1014.2 |
| 20260509080115 | 41 | 25 | 2.6 | 3.5 | 0.00 | 0.00 | 0.00 | 89 | 1014.2 |
| 20260509075612 | 41 | 50 | 1.7 | 2.6 | 0.00 | 0.00 | 0.00 | 89 | 1014.1 |
| 20260509075110 | 41 | 55 | 2.6 | 3.5 | 0.00 | 0.00 | 0.00 | 90 | 1014.4 |
| 20260509074607 | 42 | 37 | 1.7 | 2.6 | 0.00 | 0.00 | 0.00 | 89 | 1014.3 |
| 20260509074103 | 42 | 33 | 1.7 | 2.6 | 0.00 | 0.00 | 0.00 | 88 | 1014.1 |
| 20260509073600 | 42 | 15 | 1.7 | 2.6 | 0.00 | 0.00 | 0.00 | 89 | 1014.2 |
| 20260509073056 | 42 | 35 | 1.7 | 3.5 | 0.00 | 0.00 | 0.00 | 90 | 1014.5 |
| 20260509072553 | 42 | 38 | 2.6 | 3.5 | 0.00 | 0.00 | 0.00 | 87 | 1014.2 |
| 20260509072050 | 41 | 44 | 1.7 | 4.3 | 0.00 | 0.00 | 0.00 | 88 | 1014.2 |
| 20260509071547 | 41 | 47 | 2.6 | 4.3 | 0.00 | 0.00 | 0.00 | 88 | 1014.3 |
| 20260509071044 | 41 | 25 | 2.6 | 4.3 | 0.00 | 0.00 | 0.00 | 88 | 1014.4 |
| 20260509070541 | 41 | 41 | 3.5 | 3.5 | 0.00 | 0.00 | 0.00 | 89 | 1014.5 |
| 20260509070037 | 41 | 34 | 1.7 | 2.6 | 0.00 | 0.00 | 0.00 | 90 | 1014.4 |